Aviation Digital Data Service (ADDS)

Output produced by TAFs form (0032 UTC 21 January 2018)
found at http://aviationweather.gov/adds/tafs/
 
KMAF 202320Z 2100/2124 20011KT P6SM BKN200 
     FM211300 25015G25KT P6SM SKC 
     FM211700 26030G40KT 3SM BLDU SKC